Terminal Aerodrome Forecast
Issued by NWS

Home | Current Version | Previous Version | Text Only | Print | Product List | Glossary On
Versions: 1 2 3 4 5 6 7 8 9 10 11 12 13 14 15 16 17
000
FTUS44 KLZK 282300 RRA
TAFLIT
TAF
KLIT 282343Z 2900/2924 03005KT P6SM BKN070 OVC150
     FM290800 00000KT P6SM FEW015 SCT070
      TEMPO 2910/2914 4SM BR BKN015
     FM291600 05006KT P6SM BKN250=

USA.gov is the U.S. government's official web portal to all federal, state and local government web resources and services.